FYLZ/LUD METAR and TAF weather

Enter ICAO airport designator
Station Type Date Time Source
FYLZ METAR 2018/01/21 12:00 UTC NOAA

FYLZ 211200Z AUTO 28011KT //// // ////// 25/17 Q1011


Station Type Date Time Source
FYLZ Decoded METAR 2018/01/21 12:00 UTC NOAA

Luderitz / Diaz Point, Namibia (FYLZ) 26-41S 015-15E
Jan 21, 2018 - 07:00 AM EST / 2018.01.21 1200 UTC
Wind: from the W (280 degrees) at 13 MPH (11 KT):0
Temperature: 77 F (25 C)
Dew Point: 62 F (17 C)
Relative Humidity: 61%
Pressure (altimeter): 29.85 in. Hg (1011 hPa)
ob: FYLZ 211200Z AUTO 28011KT //// // ////// 25/17 Q1011
cycle: 12

Station Type Date Time Source
FYLZ TAF 2014/11/15 15:19 UTC NOAA

TAF FYLZ 151400Z 1515/1524 18015G28KT CAVOK
BECMG 1518/1520 16020KT


Example: see airport list